Latest Weather Observations for Outer Harbor (Black Pole)

IDS60901

Issued at 12:11 pm CST Monday 26 August 2019 (issued every 10 minutes, with the page automatically refreshed every 10 minutes)

About weather observations | Map of Adelaide area stations | Latest observations for Adelaide area | Other Formats
Station Details ID: 023052 Name: BLACK POLE Lat: -34.73 Lon: 138.47 Height: 6.27 m
Data from the previous 72 hours. | See also: Recent months for locations in South Australia
Date/Time
CST
Temp
°C
App
Temp
°C
Dew
Point
°C
Rel
Hum
%
Delta-T
°C
Wind Press
QNH
hPa
Press
MSL
hPa
Rain since
9am
mm
Dir  Spd
km/h
Gust
km/h
Spd
kts
Gust
kts
26/12:00pm - - - - - W 11 11 6 6 - - -
26/11:30am - - - - - WNW 4 6 2 3 - - -
26/11:00am - - - - - CALM 0 2 0 1 - - -
26/10:30am - - - - - ESE 2 4 1 2 - - -
26/10:00am - - - - - NNW 9 13 5 7 - - -
26/09:30am - - - - - NNW 7 9 4 5 - - -
26/09:00am - - - - - N 11 15 6 8 - - -
26/08:30am - - - - - N 11 15 6 8 - - -
26/08:00am - - - - - NNE 13 17 7 9 - - -
26/07:30am - - - - - NE 9 11 5 6 - - -
26/07:00am - - - - - N 15 15 8 8 - - -
26/06:30am - - - - - N 15 17 8 9 - - -
26/06:00am - - - - - NNE 11 13 6 7 - - -
26/05:30am - - - - - N 11 15 6 8 - - -
26/05:00am - - - - - N 13 15 7 8 - - -
26/04:30am - - - - - N 11 13 6 7 - - -
26/04:00am - - - - - NNE 13 17 7 9 - - -
26/03:30am - - - - - NE 7 9 4 5 - - -
26/03:00am - - - - - NNE 9 11 5 6 - - -
26/02:30am - - - - - NNE 11 13 6 7 - - -
26/02:00am - - - - - NNE 7 11 4 6 - - -
26/01:30am - - - - - ENE 4 6 2 3 - - -
26/01:00am - - - - - NNE 4 7 2 4 - - -
26/12:30am - - - - - NE 9 11 5 6 - - -
26/12:00am - - - - - SE 7 11 4 6 - - -
 
Date/Time
CST
Temp
°C
App
Temp
°C
Dew
Point
°C
Rel
Hum
%
Delta-T
°C
Wind Press
QNH
hPa
Press
MSL
hPa
Rain since
9am
mm
Dir  Spd
km/h
Gust
km/h
Spd
kts
Gust
kts
25/11:30pm - - - - - SSE 6 7 3 4 - - -
25/11:00pm - - - - - ESE 7 9 4 5 - - -
25/10:30pm - - - - - ESE 9 11 5 6 - - -
25/10:00pm - - - - - SE 11 13 6 7 - - -
25/09:30pm - - - - - SE 13 15 7 8 - - -
25/09:00pm - - - - - SSW 22 28 12 15 - - -
25/08:30pm - - - - - SSW 24 28 13 15 - - -
25/08:00pm - - - - - SSW 22 28 12 15 - - -
25/07:30pm - - - - - SSW 26 30 14 16 - - -
25/07:00pm - - - - - SSW 26 32 14 17 - - -
25/06:30pm - - - - - SSW 24 28 13 15 - - -
25/06:00pm - - - - - SSW 24 28 13 15 - - -
25/05:30pm - - - - - SW 22 26 12 14 - - -
25/05:00pm - - - - - SW 20 24 11 13 - - -
25/04:30pm - - - - - SW 19 22 10 12 - - -
25/04:00pm - - - - - SW 20 22 11 12 - - -
25/03:30pm - - - - - SW 17 22 9 12 - - -
25/03:00pm - - - - - SW 19 22 10 12 - - -
25/02:30pm - - - - - SW 22 28 12 15 - - -
25/02:00pm - - - - - SW 20 24 11 13 - - -
25/01:30pm - - - - - SW 20 24 11 13 - - -
25/01:00pm - - - - - SW 19 20 10 11 - - -
25/12:30pm - - - - - WSW 15 20 8 11 - - -
25/12:00pm - - - - - WSW 13 15 7 8 - - -
25/11:30am - - - - - W 6 9 3 5 - - -
25/11:00am - - - - - WNW 6 9 3 5 - - -
25/10:30am - - - - - WNW 4 4 2 2 - - -
25/10:00am - - - - - WNW 2 7 1 4 - - -
25/09:30am - - - - - NE 6 7 3 4 - - -
25/09:00am - - - - - ENE 9 11 5 6 - - -
25/08:30am - - - - - NNE 7 9 4 5 - - -
25/08:00am - - - - - NE 7 11 4 6 - - -
25/07:30am - - - - - ENE 11 15 6 8 - - -
25/07:00am - - - - - S 11 15 6 8 - - -
25/06:30am - - - - - SSE 15 17 8 9 - - -
25/06:00am - - - - - SE 11 13 6 7 - - -
25/05:30am - - - - - SE 9 13 5 7 - - -
25/05:00am - - - - - ESE 7 13 4 7 - - -
25/04:30am - - - - - SE 11 15 6 8 - - -
25/04:00am - - - - - SE 17 33 9 18 - - -
25/03:30am - - - - - SSW 26 30 14 16 - - -
25/03:00am - - - - - SSE 13 17 7 9 - - -
25/02:30am - - - - - SSE 13 15 7 8 - - -
25/02:00am - - - - - SSE 13 15 7 8 - - -
25/01:30am - - - - - SSE 15 19 8 10 - - -
25/01:00am - - - - - S 22 30 12 16 - - -
25/12:30am - - - - - S 26 30 14 16 - - -
25/12:00am - - - - - S 30 35 16 19 - - -
 
Date/Time
CST
Temp
°C
App
Temp
°C
Dew
Point
°C
Rel
Hum
%
Delta-T
°C
Wind Press
QNH
hPa
Press
MSL
hPa
Rain since
9am
mm
Dir  Spd
km/h
Gust
km/h
Spd
kts
Gust
kts
24/11:30pm - - - - - SSW 26 32 14 17 - - -
24/11:00pm - - - - - SSW 28 33 15 18 - - -
24/10:30pm - - - - - SSW 28 33 15 18 - - -
24/10:00pm - - - - - S 35 39 19 21 - - -
24/09:30pm - - - - - S 30 33 16 18 - - -
24/09:00pm - - - - - S 30 35 16 19 - - -
24/08:30pm - - - - - S 33 41 18 22 - - -
24/08:00pm - - - - - SSW 32 39 17 21 - - -
24/07:30pm - - - - - SSW 32 37 17 20 - - -
24/07:00pm - - - - - SSW 30 35 16 19 - - -
24/06:30pm - - - - - SSW 32 35 17 19 - - -
24/06:00pm - - - - - SSW 32 39 17 21 - - -
24/05:30pm - - - - - SSW 33 39 18 21 - - -
24/05:00pm - - - - - SSW 33 43 18 23 - - -
24/04:30pm - - - - - SSW 33 41 18 22 - - -
24/04:00pm - - - - - SSW 33 41 18 22 - - -
24/03:30pm - - - - - SSW 33 39 18 21 - - -
24/03:00pm - - - - - SSW 33 43 18 23 - - -
24/02:30pm - - - - - SSW 30 33 16 18 - - -
24/02:00pm - - - - - SSW 26 33 14 18 - - -
24/01:30pm - - - - - SW 26 32 14 17 - - -
24/01:00pm - - - - - SW 30 35 16 19 - - -
24/12:30pm - - - - - WSW 22 28 12 15 - - -
24/12:00pm - - - - - WSW 26 33 14 18 - - -
24/11:30am - - - - - NW 20 24 11 13 - - -
24/11:00am - - - - - NW 22 28 12 15 - - -
24/10:30am - - - - - NNW 30 35 16 19 - - -
24/10:00am - - - - - NNW 33 39 18 21 - - -
24/09:30am - - - - - NNW 30 37 16 20 - - -
24/09:00am - - - - - NNW 22 28 12 15 - - -
24/08:30am - - - - - NNW 22 32 12 17 - - -
24/08:00am - - - - - NNW 24 33 13 18 - - -
24/07:30am - - - - - N 32 37 17 20 - - -
24/07:00am - - - - - N 32 37 17 20 - - -
24/06:30am - - - - - N 30 35 16 19 - - -
24/06:00am - - - - - N 26 30 14 16 - - -
24/05:30am - - - - - N 26 32 14 17 - - -
24/05:00am - - - - - N 22 26 12 14 - - -
24/04:30am - - - - - N 28 33 15 18 - - -
24/04:00am - - - - - N 30 35 16 19 - - -
24/03:30am - - - - - N 32 37 17 20 - - -
24/03:00am - - - - - N 33 39 18 21 - - -
24/02:30am - - - - - N 33 39 18 21 - - -
24/02:00am - - - - - N 33 39 18 21 - - -
24/01:30am - - - - - N 33 41 18 22 - - -
24/01:00am - - - - - N 28 33 15 18 - - -
24/12:30am - - - - - N 28 33 15 18 - - -
24/12:00am - - - - - N 28 33 15 18 - - -
 
Date/Time
CST
Temp
°C
App
Temp
°C
Dew
Point
°C
Rel
Hum
%
Delta-T
°C
Wind Press
QNH
hPa
Press
MSL
hPa
Rain since
9am
mm
Dir  Spd
km/h
Gust
km/h
Spd
kts
Gust
kts
23/11:30pm - - - - - N 30 35 16 19 - - -
23/11:00pm - - - - - N 26 30 14 16 - - -
23/10:30pm - - - - - NNE 22 26 12 14 - - -
23/10:00pm - - - - - NNE 22 26 12 14 - - -
23/09:30pm - - - - - NNE 22 26 12 14 - - -
23/09:00pm - - - - - NE 20 24 11 13 - - -
23/08:30pm - - - - - NE 17 20 9 11 - - -
23/08:00pm - - - - - NE 19 20 10 11 - - -
23/07:30pm - - - - - NE 13 17 7 9 - - -
23/07:00pm - - - - - NE 11 13 6 7 - - -
23/06:30pm - - - - - NNE 15 17 8 9 - - -
23/06:00pm - - - - - NNE 9 13 5 7 - - -
23/05:30pm - - - - - NNW 13 15 7 8 - - -
23/05:00pm - - - - - NW 13 15 7 8 - - -
23/04:30pm - - - - - NW 20 24 11 13 - - -
23/04:00pm - - - - - NW 24 26 13 14 - - -
23/03:30pm - - - - - NW 24 30 13 16 - - -
23/03:00pm - - - - - NW 26 30 14 16 - - -
23/02:30pm - - - - - NW 24 30 13 16 - - -
23/02:00pm - - - - - NW 20 24 11 13 - - -
23/01:30pm - - - - - NW 24 28 13 15 - - -
23/01:00pm - - - - - WNW 19 24 10 13 - - -
23/12:30pm - - - - - NW 22 28 12 15 - - -

Latest Capital City Observations: Canberra | Sydney | Melbourne | Brisbane | Adelaide | Perth | Hobart | Darwin

Other formats

Comma delimited format used in spreadsheet applications
http://www.bom.gov.au/fwo/IDS60901/IDS60901.95675.axf

JavaScript Object Notation format (JSON) in row-major order
http://www.bom.gov.au/fwo/IDS60901/IDS60901.95675.json

Data quality

Most of these data are generated automatically and are frequently updated. Quality checks on data are not normally performed. It is possible for incorrect values to appear. Refer to information at About Latest Weather Observations and please check the disclaimer before using these data.